sensor_id;sensor_type;location;lat;lon;timestamp;temperature;humidity
21149;DHT22;10732;51.472;6.466;2024-02-15T00:02:06;11.60;99.90
21149;DHT22;10732;51.472;6.466;2024-02-15T00:04:32;11.60;99.90
21149;DHT22;10732;51.472;6.466;2024-02-15T00:06:59;11.60;99.90
21149;DHT22;10732;51.472;6.466;2024-02-15T00:09:25;11.60;99.90
21149;DHT22;10732;51.472;6.466;2024-02-15T00:11:51;11.60;99.90
21149;DHT22;10732;51.472;6.466;2024-02-15T00:14:17;11.60;99.90
21149;DHT22;10732;51.472;6.466;2024-02-15T00:16:44;11.60;99.90
21149;DHT22;10732;51.472;6.466;2024-02-15T00:19:11;11.60;99.90
21149;DHT22;10732;51.472;6.466;2024-02-15T00:21:36;11.60;99.90
21149;DHT22;10732;51.472;6.466;2024-02-15T00:24:02;11.60;99.90
21149;DHT22;10732;51.472;6.466;2024-02-15T00:26:28;11.60;99.90
21149;DHT22;10732;51.472;6.466;2024-02-15T00:28:53;11.60;99.90
21149;DHT22;10732;51.472;6.466;2024-02-15T00:31:19;11.50;99.90
21149;DHT22;10732;51.472;6.466;2024-02-15T00:33:44;11.50;99.90
21149;DHT22;10732;51.472;6.466;2024-02-15T00:36:10;11.60;99.90
21149;DHT22;10732;51.472;6.466;2024-02-15T00:38:36;11.60;99.90
21149;DHT22;10732;51.472;6.466;2024-02-15T00:41:02;11.60;99.90
21149;DHT22;10732;51.472;6.466;2024-02-15T00:43:28;11.60;99.90
21149;DHT22;10732;51.472;6.466;2024-02-15T00:45:53;11.60;99.90
21149;DHT22;10732;51.472;6.466;2024-02-15T00:48:19;11.70;99.90
21149;DHT22;10732;51.472;6.466;2024-02-15T00:50:45;11.60;99.90
21149;DHT22;10732;51.472;6.466;2024-02-15T00:53:11;11.60;99.90
21149;DHT22;10732;51.472;6.466;2024-02-15T00:55:36;11.60;99.90
21149;DHT22;10732;51.472;6.466;2024-02-15T00:58:02;11.60;99.90
21149;DHT22;10732;51.472;6.466;2024-02-15T01:00:28;11.70;99.90
21149;DHT22;10732;51.472;6.466;2024-02-15T01:02:55;11.70;99.90
21149;DHT22;10732;51.472;6.466;2024-02-15T01:05:20;11.70;99.90
21149;DHT22;10732;51.472;6.466;2024-02-15T01:07:47;11.60;99.90
21149;DHT22;10732;51.472;6.466;2024-02-15T01:10:14;11.70;99.90
21149;DHT22;10732;51.472;6.466;2024-02-15T01:12:40;11.70;99.90
21149;DHT22;10732;51.472;6.466;2024-02-15T01:15:06;11.70;99.90
21149;DHT22;10732;51.472;6.466;2024-02-15T01:17:31;11.60;99.90
21149;DHT22;10732;51.472;6.466;2024-02-15T01:19:57;11.60;99.90
21149;DHT22;10732;51.472;6.466;2024-02-15T01:22:23;11.60;99.90
21149;DHT22;10732;51.472;6.466;2024-02-15T01:24:50;11.60;99.90
21149;DHT22;10732;51.472;6.466;2024-02-15T01:27:16;11.60;99.90
21149;DHT22;10732;51.472;6.466;2024-02-15T01:29:42;11.60;99.90
21149;DHT22;10732;51.472;6.466;2024-02-15T01:32:08;11.60;99.90
21149;DHT22;10732;51.472;6.466;2024-02-15T01:34:33;11.60;99.90
21149;DHT22;10732;51.472;6.466;2024-02-15T01:36:59;11.60;99.90
21149;DHT22;10732;51.472;6.466;2024-02-15T01:39:25;11.60;99.90
21149;DHT22;10732;51.472;6.466;2024-02-15T01:41:51;11.70;99.90
21149;DHT22;10732;51.472;6.466;2024-02-15T01:44:21;11.60;99.90
21149;DHT22;10732;51.472;6.466;2024-02-15T01:46:47;11.70;99.90
21149;DHT22;10732;51.472;6.466;2024-02-15T01:49:14;11.70;99.90
21149;DHT22;10732;51.472;6.466;2024-02-15T01:51:41;11.60;99.90
21149;DHT22;10732;51.472;6.466;2024-02-15T01:54:09;11.70;99.90
21149;DHT22;10732;51.472;6.466;2024-02-15T01:56:36;11.70;99.90
21149;DHT22;10732;51.472;6.466;2024-02-15T01:59:03;11.70;99.90
21149;DHT22;10732;51.472;6.466;2024-02-15T02:01:30;11.60;99.90
21149;DHT22;10732;51.472;6.466;2024-02-15T02:03:58;11.60;99.90
21149;DHT22;10732;51.472;6.466;2024-02-15T02:06:25;11.60;99.90
21149;DHT22;10732;51.472;6.466;2024-02-15T02:08:51;11.70;99.90
21149;DHT22;10732;51.472;6.466;2024-02-15T02:11:16;11.70;99.90
21149;DHT22;10732;51.472;6.466;2024-02-15T02:13:42;11.70;99.90
21149;DHT22;10732;51.472;6.466;2024-02-15T02:16:30;11.70;99.90
21149;DHT22;10732;51.472;6.466;2024-02-15T02:18:58;11.70;99.90
21149;DHT22;10732;51.472;6.466;2024-02-15T02:21:25;11.70;99.90
21149;DHT22;10732;51.472;6.466;2024-02-15T02:23:58;11.70;99.90
21149;DHT22;10732;51.472;6.466;2024-02-15T02:26:24;11.80;99.90
21149;DHT22;10732;51.472;6.466;2024-02-15T02:28:51;11.70;99.90
21149;DHT22;10732;51.472;6.466;2024-02-15T02:31:20;11.70;99.90
21149;DHT22;10732;51.472;6.466;2024-02-15T02:33:52;11.70;99.90
21149;DHT22;10732;51.472;6.466;2024-02-15T02:36:18;11.70;99.90
21149;DHT22;10732;51.472;6.466;2024-02-15T02:38:44;11.70;99.90
21149;DHT22;10732;51.472;6.466;2024-02-15T02:41:16;11.70;99.90
21149;DHT22;10732;51.472;6.466;2024-02-15T02:43:42;11.60;99.90
21149;DHT22;10732;51.472;6.466;2024-02-15T02:46:11;11.60;99.90
21149;DHT22;10732;51.472;6.466;2024-02-15T02:48:40;11.70;99.90
21149;DHT22;10732;51.472;6.466;2024-02-15T02:51:07;11.60;99.90
21149;DHT22;10732;51.472;6.466;2024-02-15T02:53:33;11.60;99.90
21149;DHT22;10732;51.472;6.466;2024-02-15T02:55:59;11.60;99.90
21149;DHT22;10732;51.472;6.466;2024-02-15T02:58:24;11.70;99.90
21149;DHT22;10732;51.472;6.466;2024-02-15T03:00:51;11.60;99.90
21149;DHT22;10732;51.472;6.466;2024-02-15T03:03:17;11.70;99.90
21149;DHT22;10732;51.472;6.466;2024-02-15T03:05:44;11.70;99.90
21149;DHT22;10732;51.472;6.466;2024-02-15T03:08:11;11.70;99.90
21149;DHT22;10732;51.472;6.466;2024-02-15T03:10:38;11.70;99.90
21149;DHT22;10732;51.472;6.466;2024-02-15T03:13:05;11.80;99.90
21149;DHT22;10732;51.472;6.466;2024-02-15T03:15:31;11.70;99.90
21149;DHT22;10732;51.472;6.466;2024-02-15T03:17:58;11.70;99.90
21149;DHT22;10732;51.472;6.466;2024-02-15T03:20:24;11.90;99.90
21149;DHT22;10732;51.472;6.466;2024-02-15T03:23:00;11.80;99.90
21149;DHT22;10732;51.472;6.466;2024-02-15T03:25:27;11.80;99.90
21149;DHT22;10732;51.472;6.466;2024-02-15T03:27:55;11.80;99.90
21149;DHT22;10732;51.472;6.466;2024-02-15T03:30:26;11.80;99.90
21149;DHT22;10732;51.472;6.466;2024-02-15T03:32:52;11.80;99.90
21149;DHT22;10732;51.472;6.466;2024-02-15T03:35:20;11.90;99.90
21149;DHT22;10732;51.472;6.466;2024-02-15T03:37:47;11.70;99.90
21149;DHT22;10732;51.472;6.466;2024-02-15T03:40:16;11.70;99.90
21149;DHT22;10732;51.472;6.466;2024-02-15T03:42:42;11.70;99.90
21149;DHT22;10732;51.472;6.466;2024-02-15T03:45:08;11.80;99.90
21149;DHT22;10732;51.472;6.466;2024-02-15T03:47:34;11.70;99.90
21149;DHT22;10732;51.472;6.466;2024-02-15T03:50:01;11.70;99.90
21149;DHT22;10732;51.472;6.466;2024-02-15T03:52:27;11.70;99.90
21149;DHT22;10732;51.472;6.466;2024-02-15T03:54:55;11.70;99.90
21149;DHT22;10732;51.472;6.466;2024-02-15T03:57:25;11.80;99.90
21149;DHT22;10732;51.472;6.466;2024-02-15T03:59:51;11.70;99.90
21149;DHT22;10732;51.472;6.466;2024-02-15T04:02:21;11.70;99.90
21149;DHT22;10732;51.472;6.466;2024-02-15T04:04:49;11.70;99.90
21149;DHT22;10732;51.472;6.466;2024-02-15T04:07:18;11.70;99.90
21149;DHT22;10732;51.472;6.466;2024-02-15T04:09:44;11.70;99.90
21149;DHT22;10732;51.472;6.466;2024-02-15T04:12:11;11.70;99.90
21149;DHT22;10732;51.472;6.466;2024-02-15T04:14:37;11.60;99.90
21149;DHT22;10732;51.472;6.466;2024-02-15T04:17:05;11.60;99.90
21149;DHT22;10732;51.472;6.466;2024-02-15T04:19:31;11.70;99.90
21149;DHT22;10732;51.472;6.466;2024-02-15T04:21:57;11.60;99.90
21149;DHT22;10732;51.472;6.466;2024-02-15T04:24:24;11.60;99.90
21149;DHT22;10732;51.472;6.466;2024-02-15T04:26:51;11.60;99.90
21149;DHT22;10732;51.472;6.466;2024-02-15T04:29:17;11.70;99.90
21149;DHT22;10732;51.472;6.466;2024-02-15T04:31:45;11.70;99.90
21149;DHT22;10732;51.472;6.466;2024-02-15T04:34:15;11.70;99.90
21149;DHT22;10732;51.472;6.466;2024-02-15T04:36:40;11.70;99.90
21149;DHT22;10732;51.472;6.466;2024-02-15T04:39:06;11.70;99.90
21149;DHT22;10732;51.472;6.466;2024-02-15T04:41:32;11.80;99.90
21149;DHT22;10732;51.472;6.466;2024-02-15T04:43:57;11.80;99.90
21149;DHT22;10732;51.472;6.466;2024-02-15T04:46:23;11.80;99.90
21149;DHT22;10732;51.472;6.466;2024-02-15T04:48:50;11.80;99.90
21149;DHT22;10732;51.472;6.466;2024-02-15T04:51:16;11.80;99.90
21149;DHT22;10732;51.472;6.466;2024-02-15T04:53:45;11.80;99.90
21149;DHT22;10732;51.472;6.466;2024-02-15T04:56:14;11.80;99.90
21149;DHT22;10732;51.472;6.466;2024-02-15T04:58:40;11.90;99.90
21149;DHT22;10732;51.472;6.466;2024-02-15T05:01:16;11.80;99.90
21149;DHT22;10732;51.472;6.466;2024-02-15T05:03:43;11.80;99.90
21149;DHT22;10732;51.472;6.466;2024-02-15T05:06:09;11.80;99.90
21149;DHT22;10732;51.472;6.466;2024-02-15T05:08:35;11.80;99.90
21149;DHT22;10732;51.472;6.466;2024-02-15T05:11:03;11.70;99.90
21149;DHT22;10732;51.472;6.466;2024-02-15T05:13:30;11.70;99.90
21149;DHT22;10732;51.472;6.466;2024-02-15T05:15:56;11.70;99.90
21149;DHT22;10732;51.472;6.466;2024-02-15T05:18:22;11.70;99.90
21149;DHT22;10732;51.472;6.466;2024-02-15T05:20:47;11.70;99.90
21149;DHT22;10732;51.472;6.466;2024-02-15T05:23:13;11.70;99.90
21149;DHT22;10732;51.472;6.466;2024-02-15T05:25:40;11.80;99.90
21149;DHT22;10732;51.472;6.466;2024-02-15T05:28:07;11.90;99.90
21149;DHT22;10732;51.472;6.466;2024-02-15T05:30:33;11.80;99.90
21149;DHT22;10732;51.472;6.466;2024-02-15T05:32:59;11.90;99.90
21149;DHT22;10732;51.472;6.466;2024-02-15T05:35:25;11.90;99.90
21149;DHT22;10732;51.472;6.466;2024-02-15T05:37:52;12.00;99.90
21149;DHT22;10732;51.472;6.466;2024-02-15T05:40:18;11.90;99.90
21149;DHT22;10732;51.472;6.466;2024-02-15T05:42:45;11.90;99.90
21149;DHT22;10732;51.472;6.466;2024-02-15T05:47:50;11.90;99.90
21149;DHT22;10732;51.472;6.466;2024-02-15T05:50:15;11.80;99.90
21149;DHT22;10732;51.472;6.466;2024-02-15T05:52:41;11.80;99.90
21149;DHT22;10732;51.472;6.466;2024-02-15T05:55:07;11.80;99.90
21149;DHT22;10732;51.472;6.466;2024-02-15T05:57:33;11.80;99.90
21149;DHT22;10732;51.472;6.466;2024-02-15T05:59:59;11.80;99.90
21149;DHT22;10732;51.472;6.466;2024-02-15T06:02:28;11.80;99.90
21149;DHT22;10732;51.472;6.466;2024-02-15T06:04:55;11.70;99.90
21149;DHT22;10732;51.472;6.466;2024-02-15T06:07:26;11.70;99.90
21149;DHT22;10732;51.472;6.466;2024-02-15T06:09:52;11.70;99.90
21149;DHT22;10732;51.472;6.466;2024-02-15T06:12:17;11.70;99.90
21149;DHT22;10732;51.472;6.466;2024-02-15T06:14:43;11.70;99.90
21149;DHT22;10732;51.472;6.466;2024-02-15T06:17:08;11.70;99.90
21149;DHT22;10732;51.472;6.466;2024-02-15T06:19:36;11.70;99.90
21149;DHT22;10732;51.472;6.466;2024-02-15T06:22:01;11.80;99.90
21149;DHT22;10732;51.472;6.466;2024-02-15T06:24:27;11.70;99.90
21149;DHT22;10732;51.472;6.466;2024-02-15T06:26:53;11.70;99.90
21149;DHT22;10732;51.472;6.466;2024-02-15T06:29:25;11.80;99.90
21149;DHT22;10732;51.472;6.466;2024-02-15T06:32:09;11.80;99.90
21149;DHT22;10732;51.472;6.466;2024-02-15T06:34:54;11.70;99.90
21149;DHT22;10732;51.472;6.466;2024-02-15T06:37:39;11.70;99.90
21149;DHT22;10732;51.472;6.466;2024-02-15T06:40:23;11.70;99.90
21149;DHT22;10732;51.472;6.466;2024-02-15T06:42:49;11.70;99.90
21149;DHT22;10732;51.472;6.466;2024-02-15T06:45:15;11.60;99.90
21149;DHT22;10732;51.472;6.466;2024-02-15T06:47:42;11.60;99.90
21149;DHT22;10732;51.472;6.466;2024-02-15T06:50:13;11.60;99.90
21149;DHT22;10732;51.472;6.466;2024-02-15T06:52:42;11.60;99.90
21149;DHT22;10732;51.472;6.466;2024-02-15T06:55:09;11.60;99.90
21149;DHT22;10732;51.472;6.466;2024-02-15T06:57:40;11.60;99.90
21149;DHT22;10732;51.472;6.466;2024-02-15T07:00:07;11.60;99.90
21149;DHT22;10732;51.472;6.466;2024-02-15T07:02:34;11.50;99.90
21149;DHT22;10732;51.472;6.466;2024-02-15T07:04:59;11.50;99.90
21149;DHT22;10732;51.472;6.466;2024-02-15T07:07:26;11.50;99.90
21149;DHT22;10732;51.472;6.466;2024-02-15T07:09:51;11.50;99.90
21149;DHT22;10732;51.472;6.466;2024-02-15T07:12:17;11.50;99.90
21149;DHT22;10732;51.472;6.466;2024-02-15T07:14:45;11.50;99.90
21149;DHT22;10732;51.472;6.466;2024-02-15T07:17:12;11.50;99.90
21149;DHT22;10732;51.472;6.466;2024-02-15T07:19:37;11.50;99.90
21149;DHT22;10732;51.472;6.466;2024-02-15T07:22:06;11.60;99.90
21149;DHT22;10732;51.472;6.466;2024-02-15T07:24:32;11.60;99.90
21149;DHT22;10732;51.472;6.466;2024-02-15T07:26:58;11.60;99.90
21149;DHT22;10732;51.472;6.466;2024-02-15T07:29:24;11.60;99.90
21149;DHT22;10732;51.472;6.466;2024-02-15T07:31:50;11.60;99.90
21149;DHT22;10732;51.472;6.466;2024-02-15T07:34:16;11.60;99.90
21149;DHT22;10732;51.472;6.466;2024-02-15T07:36:42;11.60;99.90
21149;DHT22;10732;51.472;6.466;2024-02-15T07:39:09;11.50;99.90
21149;DHT22;10732;51.472;6.466;2024-02-15T07:41:38;11.60;99.90
21149;DHT22;10732;51.472;6.466;2024-02-15T07:44:04;11.60;99.90
21149;DHT22;10732;51.472;6.466;2024-02-15T07:46:30;11.60;99.90
21149;DHT22;10732;51.472;6.466;2024-02-15T07:48:55;11.60;99.90
21149;DHT22;10732;51.472;6.466;2024-02-15T07:51:22;11.70;99.90
21149;DHT22;10732;51.472;6.466;2024-02-15T07:53:49;11.60;99.90
21149;DHT22;10732;51.472;6.466;2024-02-15T07:56:15;11.60;99.90
21149;DHT22;10732;51.472;6.466;2024-02-15T07:58:42;11.60;99.90
21149;DHT22;10732;51.472;6.466;2024-02-15T08:01:12;11.60;99.90
21149;DHT22;10732;51.472;6.466;2024-02-15T08:03:38;11.60;99.90
21149;DHT22;10732;51.472;6.466;2024-02-15T08:06:12;11.60;99.90
21149;DHT22;10732;51.472;6.466;2024-02-15T08:08:42;11.60;99.90
21149;DHT22;10732;51.472;6.466;2024-02-15T08:11:11;11.60;99.90
21149;DHT22;10732;51.472;6.466;2024-02-15T08:16:11;11.60;99.90
21149;DHT22;10732;51.472;6.466;2024-02-15T08:18:38;11.50;99.90
21149;DHT22;10732;51.472;6.466;2024-02-15T08:21:04;11.60;99.90
21149;DHT22;10732;51.472;6.466;2024-02-15T08:23:30;11.50;99.90
21149;DHT22;10732;51.472;6.466;2024-02-15T08:25:56;11.50;99.90
21149;DHT22;10732;51.472;6.466;2024-02-15T08:28:23;11.50;99.90
21149;DHT22;10732;51.472;6.466;2024-02-15T08:30:48;11.50;99.90
21149;DHT22;10732;51.472;6.466;2024-02-15T08:33:14;11.50;99.90
21149;DHT22;10732;51.472;6.466;2024-02-15T08:35:40;11.60;99.90
21149;DHT22;10732;51.472;6.466;2024-02-15T08:38:06;11.60;99.90
21149;DHT22;10732;51.472;6.466;2024-02-15T08:40:32;11.60;99.90
21149;DHT22;10732;51.472;6.466;2024-02-15T08:42:58;11.50;99.90
21149;DHT22;10732;51.472;6.466;2024-02-15T08:45:23;11.60;99.90
21149;DHT22;10732;51.472;6.466;2024-02-15T08:47:50;11.60;99.90
21149;DHT22;10732;51.472;6.466;2024-02-15T08:50:18;11.60;99.90
21149;DHT22;10732;51.472;6.466;2024-02-15T08:52:45;11.60;99.90
21149;DHT22;10732;51.472;6.466;2024-02-15T08:55:12;11.60;99.90
21149;DHT22;10732;51.472;6.466;2024-02-15T08:57:41;11.60;99.90
21149;DHT22;10732;51.472;6.466;2024-02-15T09:00:07;11.60;99.90
21149;DHT22;10732;51.472;6.466;2024-02-15T09:02:48;11.60;99.90
21149;DHT22;10732;51.472;6.466;2024-02-15T09:05:18;11.60;99.90
21149;DHT22;10732;51.472;6.466;2024-02-15T09:07:45;11.70;99.90
21149;DHT22;10732;51.472;6.466;2024-02-15T09:10:16;11.70;99.90
21149;DHT22;10732;51.472;6.466;2024-02-15T09:12:43;11.70;99.90
21149;DHT22;10732;51.472;6.466;2024-02-15T09:15:10;11.80;99.90
21149;DHT22;10732;51.472;6.466;2024-02-15T09:17:36;11.80;99.90
21149;DHT22;10732;51.472;6.466;2024-02-15T09:20:12;11.80;99.90
21149;DHT22;10732;51.472;6.466;2024-02-15T09:22:42;11.90;99.90
21149;DHT22;10732;51.472;6.466;2024-02-15T09:25:08;11.90;99.90
21149;DHT22;10732;51.472;6.466;2024-02-15T09:27:35;12.00;99.90
21149;DHT22;10732;51.472;6.466;2024-02-15T09:30:00;12.00;99.90
21149;DHT22;10732;51.472;6.466;2024-02-15T09:32:26;12.10;99.90
21149;DHT22;10732;51.472;6.466;2024-02-15T09:34:51;12.10;99.90
21149;DHT22;10732;51.472;6.466;2024-02-15T09:37:17;12.10;99.90
21149;DHT22;10732;51.472;6.466;2024-02-15T09:39:42;12.10;99.90
21149;DHT22;10732;51.472;6.466;2024-02-15T09:42:08;12.20;99.90
21149;DHT22;10732;51.472;6.466;2024-02-15T09:44:34;12.20;99.90
21149;DHT22;10732;51.472;6.466;2024-02-15T09:47:04;12.30;99.90
21149;DHT22;10732;51.472;6.466;2024-02-15T09:49:35;12.30;99.90
21149;DHT22;10732;51.472;6.466;2024-02-15T09:52:03;12.30;99.90
21149;DHT22;10732;51.472;6.466;2024-02-15T09:54:30;12.40;99.90
21149;DHT22;10732;51.472;6.466;2024-02-15T09:56:56;12.40;99.90
21149;DHT22;10732;51.472;6.466;2024-02-15T09:59:26;12.50;99.90
21149;DHT22;10732;51.472;6.466;2024-02-15T10:01:57;12.50;99.90
21149;DHT22;10732;51.472;6.466;2024-02-15T10:04:24;12.50;99.90
21149;DHT22;10732;51.472;6.466;2024-02-15T10:06:51;12.60;99.90
21149;DHT22;10732;51.472;6.466;2024-02-15T10:09:26;12.50;99.90
21149;DHT22;10732;51.472;6.466;2024-02-15T10:11:57;12.50;99.90
21149;DHT22;10732;51.472;6.466;2024-02-15T10:14:24;12.60;99.90
21149;DHT22;10732;51.472;6.466;2024-02-15T10:16:50;12.70;99.90
21149;DHT22;10732;51.472;6.466;2024-02-15T10:19:15;12.80;99.90
21149;DHT22;10732;51.472;6.466;2024-02-15T10:21:42;12.80;99.90
21149;DHT22;10732;51.472;6.466;2024-02-15T10:24:08;12.80;99.90
21149;DHT22;10732;51.472;6.466;2024-02-15T10:26:35;12.90;99.90
21149;DHT22;10732;51.472;6.466;2024-02-15T10:29:10;13.00;99.90
21149;DHT22;10732;51.472;6.466;2024-02-15T10:31:40;13.10;99.90
21149;DHT22;10732;51.472;6.466;2024-02-15T10:34:16;13.20;99.90
21149;DHT22;10732;51.472;6.466;2024-02-15T10:36:44;13.30;99.90
21149;DHT22;10732;51.472;6.466;2024-02-15T10:39:18;13.40;99.90
21149;DHT22;10732;51.472;6.466;2024-02-15T10:41:51;13.30;99.90
21149;DHT22;10732;51.472;6.466;2024-02-15T10:44:19;13.40;99.90
21149;DHT22;10732;51.472;6.466;2024-02-15T10:46:46;13.50;99.90
21149;DHT22;10732;51.472;6.466;2024-02-15T10:49:13;13.50;99.90
21149;DHT22;10732;51.472;6.466;2024-02-15T10:51:43;13.50;99.90
21149;DHT22;10732;51.472;6.466;2024-02-15T10:54:12;13.50;99.90
21149;DHT22;10732;51.472;6.466;2024-02-15T10:56:43;13.60;99.90
21149;DHT22;10732;51.472;6.466;2024-02-15T10:59:18;13.60;99.90
21149;DHT22;10732;51.472;6.466;2024-02-15T11:01:49;13.60;99.90
21149;DHT22;10732;51.472;6.466;2024-02-15T11:04:20;13.60;99.90
21149;DHT22;10732;51.472;6.466;2024-02-15T11:06:50;13.70;99.90
21149;DHT22;10732;51.472;6.466;2024-02-15T11:09:17;13.60;99.90
21149;DHT22;10732;51.472;6.466;2024-02-15T11:11:45;13.70;99.90
21149;DHT22;10732;51.472;6.466;2024-02-15T11:14:31;13.90;99.90
21149;DHT22;10732;51.472;6.466;2024-02-15T11:17:01;13.90;99.90
21149;DHT22;10732;51.472;6.466;2024-02-15T11:22:00;14.20;99.90
21149;DHT22;10732;51.472;6.466;2024-02-15T11:24:30;14.30;99.90
21149;DHT22;10732;51.472;6.466;2024-02-15T11:27:04;14.40;99.90
21149;DHT22;10732;51.472;6.466;2024-02-15T11:35:09;15.10;99.90
21149;DHT22;10732;51.472;6.466;2024-02-15T11:42:59;15.30;99.90
21149;DHT22;10732;51.472;6.466;2024-02-15T11:45:26;15.00;99.90
21149;DHT22;10732;51.472;6.466;2024-02-15T11:47:59;15.00;99.90
21149;DHT22;10732;51.472;6.466;2024-02-15T11:50:27;15.20;99.90
21149;DHT22;10732;51.472;6.466;2024-02-15T11:53:01;15.30;99.90
21149;DHT22;10732;51.472;6.466;2024-02-15T11:55:31;15.40;99.90
21149;DHT22;10732;51.472;6.466;2024-02-15T11:57:59;15.30;99.90
21149;DHT22;10732;51.472;6.466;2024-02-15T12:00:31;15.20;99.90
21149;DHT22;10732;51.472;6.466;2024-02-15T12:03:16;15.10;99.90
21149;DHT22;10732;51.472;6.466;2024-02-15T12:06:00;15.20;99.90
21149;DHT22;10732;51.472;6.466;2024-02-15T12:08:45;15.40;99.90
21149;DHT22;10732;51.472;6.466;2024-02-15T12:11:30;15.10;99.90
21149;DHT22;10732;51.472;6.466;2024-02-15T12:14:15;15.20;99.90
21149;DHT22;10732;51.472;6.466;2024-02-15T12:17:13;15.20;99.90
21149;DHT22;10732;51.472;6.466;2024-02-15T12:20:01;15.50;99.90
21149;DHT22;10732;51.472;6.466;2024-02-15T12:22:39;15.70;99.90
21149;DHT22;10732;51.472;6.466;2024-02-15T12:25:06;15.90;99.90
21149;DHT22;10732;51.472;6.466;2024-02-15T12:27:43;15.90;99.90
21149;DHT22;10732;51.472;6.466;2024-02-15T12:30:16;16.10;99.90
21149;DHT22;10732;51.472;6.466;2024-02-15T12:32:45;16.30;99.90
21149;DHT22;10732;51.472;6.466;2024-02-15T12:35:14;16.10;99.90
21149;DHT22;10732;51.472;6.466;2024-02-15T12:40:37;16.30;99.90
21149;DHT22;10732;51.472;6.466;2024-02-15T12:43:07;16.60;99.90
21149;DHT22;10732;51.472;6.466;2024-02-15T12:45:36;16.70;99.90
21149;DHT22;10732;51.472;6.466;2024-02-15T12:48:06;16.90;99.90
21149;DHT22;10732;51.472;6.466;2024-02-15T12:50:33;16.70;99.90
21149;DHT22;10732;51.472;6.466;2024-02-15T12:52:59;16.70;99.90
21149;DHT22;10732;51.472;6.466;2024-02-15T12:55:29;16.90;99.90
21149;DHT22;10732;51.472;6.466;2024-02-15T12:58:04;16.90;99.90
21149;DHT22;10732;51.472;6.466;2024-02-15T13:00:34;16.90;99.90
21149;DHT22;10732;51.472;6.466;2024-02-15T13:03:06;16.90;99.90
21149;DHT22;10732;51.472;6.466;2024-02-15T13:05:34;16.90;99.90
21149;DHT22;10732;51.472;6.466;2024-02-15T13:08:01;16.70;99.90
21149;DHT22;10732;51.472;6.466;2024-02-15T13:10:28;16.70;99.90
21149;DHT22;10732;51.472;6.466;2024-02-15T13:12:55;17.00;99.90
21149;DHT22;10732;51.472;6.466;2024-02-15T13:15:21;16.90;99.90
21149;DHT22;10732;51.472;6.466;2024-02-15T13:17:51;16.90;99.90
21149;DHT22;10732;51.472;6.466;2024-02-15T13:20:17;16.60;99.90
21149;DHT22;10732;51.472;6.466;2024-02-15T13:22:46;16.90;99.90
21149;DHT22;10732;51.472;6.466;2024-02-15T13:25:13;16.90;99.90
21149;DHT22;10732;51.472;6.466;2024-02-15T13:27:42;16.70;99.90
21149;DHT22;10732;51.472;6.466;2024-02-15T13:30:09;16.70;99.90
21149;DHT22;10732;51.472;6.466;2024-02-15T13:32:38;16.70;99.90
21149;DHT22;10732;51.472;6.466;2024-02-15T13:35:08;16.80;99.90
21149;DHT22;10732;51.472;6.466;2024-02-15T13:37:48;16.70;99.90
21149;DHT22;10732;51.472;6.466;2024-02-15T13:40:15;16.80;99.90
21149;DHT22;10732;51.472;6.466;2024-02-15T13:42:45;16.80;99.90
21149;DHT22;10732;51.472;6.466;2024-02-15T13:45:28;16.80;99.90
21149;DHT22;10732;51.472;6.466;2024-02-15T13:47:59;17.00;99.90
21149;DHT22;10732;51.472;6.466;2024-02-15T13:50:29;17.10;99.90
21149;DHT22;10732;51.472;6.466;2024-02-15T13:52:55;17.10;99.90
21149;DHT22;10732;51.472;6.466;2024-02-15T13:55:20;17.10;99.90
21149;DHT22;10732;51.472;6.466;2024-02-15T13:57:47;17.20;99.90
21149;DHT22;10732;51.472;6.466;2024-02-15T14:00:14;17.10;99.90
21149;DHT22;10732;51.472;6.466;2024-02-15T14:02:54;17.10;99.90
21149;DHT22;10732;51.472;6.466;2024-02-15T14:05:24;17.10;99.90
21149;DHT22;10732;51.472;6.466;2024-02-15T14:07:55;17.20;99.90
21149;DHT22;10732;51.472;6.466;2024-02-15T14:10:23;17.40;99.90
21149;DHT22;10732;51.472;6.466;2024-02-15T14:12:50;17.30;99.90
21149;DHT22;10732;51.472;6.466;2024-02-15T14:15:21;17.00;99.90
21149;DHT22;10732;51.472;6.466;2024-02-15T14:17:47;17.20;99.90
21149;DHT22;10732;51.472;6.466;2024-02-15T14:20:13;17.20;99.90
21149;DHT22;10732;51.472;6.466;2024-02-15T14:22:49;17.30;99.90
21149;DHT22;10732;51.472;6.466;2024-02-15T14:25:24;17.30;99.90
21149;DHT22;10732;51.472;6.466;2024-02-15T14:27:54;17.50;99.90
21149;DHT22;10732;51.472;6.466;2024-02-15T14:30:20;17.70;99.90
21149;DHT22;10732;51.472;6.466;2024-02-15T14:33:04;17.40;99.90
21149;DHT22;10732;51.472;6.466;2024-02-15T14:35:33;17.50;99.90
21149;DHT22;10732;51.472;6.466;2024-02-15T14:38:04;17.40;99.90
21149;DHT22;10732;51.472;6.466;2024-02-15T14:40:35;17.20;99.90
21149;DHT22;10732;51.472;6.466;2024-02-15T14:43:02;17.30;99.90
21149;DHT22;10732;51.472;6.466;2024-02-15T14:45:30;17.20;99.90
21149;DHT22;10732;51.472;6.466;2024-02-15T14:47:57;17.10;99.90
21149;DHT22;10732;51.472;6.466;2024-02-15T14:50:23;17.00;99.90
21149;DHT22;10732;51.472;6.466;2024-02-15T14:52:49;17.00;99.90
21149;DHT22;10732;51.472;6.466;2024-02-15T14:55:15;16.90;99.90
21149;DHT22;10732;51.472;6.466;2024-02-15T14:57:40;16.80;99.90
21149;DHT22;10732;51.472;6.466;2024-02-15T15:00:07;16.60;99.90
21149;DHT22;10732;51.472;6.466;2024-02-15T15:02:40;16.60;99.90
21149;DHT22;10732;51.472;6.466;2024-02-15T15:05:07;16.50;99.90
21149;DHT22;10732;51.472;6.466;2024-02-15T15:07:52;16.60;99.90
21149;DHT22;10732;51.472;6.466;2024-02-15T15:10:36;16.60;99.90
21149;DHT22;10732;51.472;6.466;2024-02-15T15:13:20;16.60;99.90
21149;DHT22;10732;51.472;6.466;2024-02-15T15:15:46;16.50;99.90
21149;DHT22;10732;51.472;6.466;2024-02-15T15:18:13;16.40;99.90
21149;DHT22;10732;51.472;6.466;2024-02-15T15:20:39;16.40;99.90
21149;DHT22;10732;51.472;6.466;2024-02-15T15:23:05;16.40;99.90
21149;DHT22;10732;51.472;6.466;2024-02-15T15:25:33;16.30;99.90
21149;DHT22;10732;51.472;6.466;2024-02-15T15:27:59;16.30;99.90
21149;DHT22;10732;51.472;6.466;2024-02-15T15:30:24;16.20;99.90
21149;DHT22;10732;51.472;6.466;2024-02-15T15:32:50;16.10;99.90
21149;DHT22;10732;51.472;6.466;2024-02-15T15:35:16;16.00;99.90
21149;DHT22;10732;51.472;6.466;2024-02-15T15:37:47;16.00;99.90
21149;DHT22;10732;51.472;6.466;2024-02-15T15:40:14;16.00;99.90
21149;DHT22;10732;51.472;6.466;2024-02-15T15:42:40;16.00;99.90
21149;DHT22;10732;51.472;6.466;2024-02-15T15:45:06;16.00;99.90
21149;DHT22;10732;51.472;6.466;2024-02-15T15:47:34;15.90;99.90
21149;DHT22;10732;51.472;6.466;2024-02-15T15:50:00;15.90;99.90
21149;DHT22;10732;51.472;6.466;2024-02-15T15:52:26;15.90;99.90
21149;DHT22;10732;51.472;6.466;2024-02-15T15:54:53;15.90;99.90
21149;DHT22;10732;51.472;6.466;2024-02-15T15:57:18;15.90;99.90
21149;DHT22;10732;51.472;6.466;2024-02-15T15:59:45;15.80;99.90